• Join FlightAware (Why Join?)
  • Login
  • US Flag 
11:51PM EDT


 

Airport Tracker/Info


-or-


 

Live Flight TrackerFlight Track Log ✈ N30VP ✈ 19-Oct-2013 ✈ KTPA - KOKV

Flight Track Log - Related Links

Times and Time Zones

All times are in EDT time to prevent confusion due to time zone crossing. See the N30VP flight status page for this flight to view local times or setup timezone preferences in your user account.

Time Position Orientation Groundspeed Altitude Reporting Facility
EDT Latitude Longitude Course Direction KTS MPH feet Rate Location/Type
03:36PM 27.9167 -82.5667 211° Southwest 224 258 5,300  Level Tampa TRACON
03:37PM 27.9500 -82.6333 300° West 227 261 9,800 2,160 Climbing Tampa TRACON
03:39PM 28.0894 -82.7419 326° Northwest 328 377 12,000 1,800 Climbing Jacksonville Center
03:40PM 28.1936 -82.7347 North 340 391 15,300 3,420 Climbing Jacksonville Center
03:41PM 28.2917 -82.7253 North 340 391 18,900 3,300 Climbing Jacksonville Center
03:42PM 28.3919 -82.7228 North 347 399 21,900 2,460 Climbing Jacksonville Center
03:43PM 28.4983 -82.7178 North 361 415 23,900 1,920 Climbing Jacksonville Center
03:44PM 28.6069 -82.7175 360° North 375 432 25,800 1,020 Climbing Jacksonville Center
03:45PM 28.7258 -82.7128 North 402 463 26,000 1,020 Climbing Jacksonville Center
03:46PM 28.8511 -82.7100 North 429 494 27,900 1,920 Climbing Jacksonville Center
03:47PM 28.9700 -82.7028 North 434 499 29,900 1,800 Climbing Jacksonville Center
03:48PM 29.0931 -82.7025 360° North 434 499 31,500 1,320 Climbing Jacksonville Center
03:49PM 29.2142 -82.6975 North 434 499 32,600 1,080 Climbing Jacksonville Center
03:50PM 29.3372 -82.6947 North 440 506 33,700 1,140 Climbing Jacksonville Center
03:51PM 29.4625 -82.6850 North 440 506 34,900 1,440 Climbing Jacksonville Center
03:52PM 29.6003 -82.6728 North 448 516 36,600 1,020 Climbing Jacksonville Center
03:53PM 29.7275 -82.6486 North 449 517 37,000 180 Climbing Jacksonville Center
03:54PM 29.8569 -82.6339 North 455 524 37,000  Level Jacksonville Center
03:55PM 29.9822 -82.6192 North 460 529 37,000  Level Jacksonville Center
03:56PM 30.1117 -82.6069 North 460 529 37,000  Level Jacksonville Center
03:57PM 30.2389 -82.5897 North 460 529 37,000 -60 Level Jacksonville Center
03:58PM 30.3664 -82.5747 North 460 529 36,900  Descending Jacksonville Center
03:59PM 30.4936 -82.5575 North 460 529 37,000  Climbing Jacksonville Center
04:00PM 30.6167 -82.5064 20° North 465 535 36,900  Descending Jacksonville Center
04:01PM 30.7417 -82.4503 21° North 471 542 37,000  Climbing Jacksonville Center
04:02PM 30.8522 -82.4014 21° North 477 549 37,000  Level Jacksonville Center
04:03PM 30.9753 -82.3450 21° North 477 549 37,000  Level Jacksonville Center
04:04PM 31.1025 -82.2933 19° North 472 543 37,000  Level Jacksonville Center
04:05PM 31.2275 -82.2342 22° Northeast 472 543 37,000  Level Jacksonville Center
04:06PM 31.3503 -82.1797 21° North 472 543 37,000  Level Jacksonville Center
04:07PM 31.4753 -82.1203 22° Northeast 472 543 37,000  Level Jacksonville Center
04:08PM 31.6000 -82.0656 20° North 472 543 37,000  Level Jacksonville Center
04:09PM 31.7353 -82.0008 22° Northeast 473 544 37,000  Level Jacksonville Center
04:10PM 31.8622 -81.9436 21° North 480 552 37,000  Level Jacksonville Center
04:11PM 31.9725 -81.8933 21° North 480 552 37,000  Level Jacksonville Center
04:12PM 32.1142 -81.8281 21° North 475 547 37,000  Level Jacksonville Center
04:13PM 32.2389 -81.7725 21° North 486 559 37,000  Level Jacksonville Center
04:14PM 32.3553 -81.7169 22° Northeast 491 565 37,000  Level Jacksonville Center
04:15PM 32.4944 -81.6511 22° Northeast 491 565 37,000  Level Jacksonville Center
04:16PM 32.6067 -81.5978 22° Northeast 491 565 37,000  Level Jacksonville Center
04:17PM 32.7500 -81.5342 20° North 491 565 37,000  Level Jacksonville Center
04:18PM 32.8767 -81.4728 22° Northeast 491 565 37,000  Level Jacksonville Center
04:19PM 33.0056 -81.4114 22° Northeast 491 565 37,000  Level Jacksonville Center
04:20PM 33.1361 -81.3522 21° North 491 565 37,000  Level Jacksonville Center
04:21PM 33.2647 -81.2903 22° Northeast 491 565 37,000  Level Jacksonville Center
04:22PM 33.3914 -81.2283 22° Northeast 491 565 37,000  Level Jacksonville Center
04:23PM 33.5219 -81.1661 22° Northeast 491 565 37,000  Level Jacksonville Center
04:24PM 33.6506 -81.1061 21° North 496 571 37,000  Level Jacksonville Center
04:25PM 33.7686 -81.0436 24° Northeast 496 571 37,000  Level Jacksonville Center
04:26PM 33.8972 -80.9886 20° North 491 565 37,000  Level Jacksonville Center
04:27PM 34.0278 -80.9256 22° Northeast 491 565 37,000  Level Jacksonville Center
04:29PM 34.3581 -80.7703 21° North 502 578 37,000  Level Atlanta Center
04:30PM 34.4875 -80.6972 25° Northeast 507 583 37,000  Level Atlanta Center
04:31PM 34.6175 -80.6364 21° North 512 589 37,000  Level Atlanta Center
04:32PM 34.7472 -80.5731 22° Northeast 522 601 37,000  Level Atlanta Center
04:33PM 34.8786 -80.5042 23° Northeast 516 594 37,000  Level Atlanta Center
04:34PM 35.0144 -80.4375 22° Northeast 532 612 37,000  Level Atlanta Center
04:35PM 35.1297 -80.3819 22° Northeast 517 595 37,000  Level Atlanta Center
04:36PM 35.2611 -80.3150 23° Northeast 524 603 37,000  Level Atlanta Center
04:37PM 35.3947 -80.2478 22° Northeast 524 603 37,000  Level Atlanta Center
04:38PM 35.5264 -80.1831 22° Northeast 524 603 37,000  Level Atlanta Center
04:39PM 35.6556 -80.1156 23° Northeast 524 603 37,000  Level Atlanta Center
04:41PM 35.8933 -80.0019 21° North 517 595 37,000  Level Washington Center
04:42PM 36.0272 -79.9325 23° Northeast 517 595 37,000  Level Washington Center
04:43PM 36.1611 -79.8653 22° Northeast 517 595 37,000  Level Washington Center
04:44PM 36.2972 -79.7953 23° Northeast 517 595 37,000  Level Washington Center
04:45PM 36.4397 -79.7178 24° Northeast 517 595 37,000  Level Washington Center
04:46PM 36.5736 -79.6472 23° Northeast 517 595 37,000 -240 Level Washington Center
04:47PM 36.7072 -79.5792 22° Northeast 512 589 36,600 -720 Descending Washington Center
04:48PM 36.8283 -79.5153 23° Northeast 512 589 35,600 -1,080 Descending Washington Center
04:49PM 36.9619 -79.4442 23° Northeast 512 589 34,500 -1,200 Descending Washington Center
04:50PM 37.0978 -79.3728 23° Northeast 517 595 33,300 -2,040 Descending Washington Center
04:51PM 37.2506 -79.2917 23° Northeast 524 603 30,600 -2,340 Descending Washington Center
04:52PM 37.3883 -79.2200 22° Northeast 524 603 28,600 -1,740 Descending Washington Center
04:53PM 37.5219 -79.1503 22° Northeast 524 603 27,200 -1,440 Descending Washington Center
04:54PM 37.6447 -79.0853 23° Northeast 519 597 25,800 -1,500 Descending Washington Center
04:55PM 37.7761 -79.0178 22° Northeast 519 597 24,300 -1,500 Descending Washington Center
04:56PM 37.9011 -78.9497 23° Northeast 513 590 22,800 -1,440 Descending Washington Center
04:57PM 38.0364 -78.8794 22° Northeast 486 559 21,400 -1,800 Descending Washington Center
04:58PM 38.1528 -78.8158 23° Northeast 466 536 19,200 -2,220 Descending Washington Center
04:59PM 38.2672 -78.7547 23° Northeast 447 514 17,000 -2,040 Descending Washington Center
05:00PM 38.3625 -78.7006 24° Northeast 429 494 15,300 -1,800 Descending Washington Center
05:01PM 38.4639 -78.6436 24° Northeast 411 473 13,500 -1,800 Descending Washington Center
05:02PM 38.5592 -78.5919 23° Northeast 386 444 11,700 -1,680 Descending Washington Center
05:03PM 38.6417 -78.5367 28° Northeast 356 410 10,200 -1,620 Descending Washington Center
05:04PM 38.7183 -78.4786 31° Northeast 327 376 8,600 -1,560 Descending Washington Center
05:05PM 38.7883 -78.4228 32° Northeast 305 351 7,100 -1,320 Descending Washington Center
05:06PM 38.8564 -78.3694 31° Northeast 291 335 6,000 -1,320 Descending Washington Center
05:07PM 38.9178 -78.3236 30° Northeast 269 310 4,600 -1,020 Descending Washington Center
05:08PM 38.9831 -78.3019 14° North 251 289 4,000 -300 Descending Washington Center
05:09PM 39.0525 -78.2644 23° Northeast 244 281 4,000 4,380 Level Washington Center
05:10PM 39.1158 -78.2347 20° North 244 281 13,000 4,500 Climbing Washington Center
05:11PM 39.1789 -78.2022 22° Northeast 244 281 13,000  Level Washington Center
05:12PM 39.2042 -78.1897 21° North 244 281 13,000  Level Washington Center
05:14PM 39.1435 -78.1444 27° Northeast  Level Estimated
05:21PM 39.1435 -78.1444 27° Northeast  Level Estimated
05:22PM 39.1435 -78.1444 27° Northeast  Level Estimated
05:23PM 39.1435 -78.1444 27° Northeast  Level Estimated
05:24PM 39.1435 -78.1444 27° Northeast  Level Estimated
05:25PM 39.1435 -78.1444 27° Northeast  Level Estimated
05:26PM 39.1435 -78.1444 27° Northeast  Level Estimated
05:27PM 39.1435 -78.1444 27° Northeast  Level Estimated
05:28PM 39.1435 -78.1444 27° Northeast  Level Estimated
05:29PM 39.1435 -78.1444 27° Northeast  Level Estimated
05:30PM 39.1435 -78.1444 27° Northeast  Level Estimated
05:31PM 39.1435 -78.1444 27° Northeast  Level Estimated
05:32PM 39.1435 -78.1444 27° Northeast  Level Estimated